createdAt,value
2018-08-31T00:01:44.530Z,36.5
2018-08-31T00:04:00.453Z,36.5
2018-08-31T00:06:10.922Z,36.5
2018-08-31T00:06:20.858Z,36.5
2018-08-31T00:08:05.549Z,36.3
2018-08-31T00:10:10.622Z,36.5
2018-08-31T00:12:07.872Z,36.3
2018-08-31T00:14:05.564Z,36.3
2018-08-31T00:16:07.800Z,36.3
2018-08-31T00:18:05.222Z,36.3
2018-08-31T00:20:05.949Z,36.3
2018-08-31T00:22:06.687Z,36.3
2018-08-31T00:24:07.925Z,36.4
2018-08-31T00:26:07.790Z,36.2
2018-08-31T00:28:05.445Z,36.4
2018-08-31T00:30:05.745Z,36.4
2018-08-31T00:32:05.625Z,36.4
2018-08-31T00:34:05.298Z,36.5
2018-08-31T00:36:05.113Z,36.3
2018-08-31T00:38:05.794Z,36.4
2018-08-31T00:40:06.488Z,36.6
2018-08-31T00:42:05.200Z,36.3
2018-08-31T00:44:05.891Z,36.3
2018-08-31T00:46:05.629Z,36.4
2018-08-31T00:48:05.319Z,36.3
2018-08-31T00:50:05.971Z,36.4
2018-08-31T00:52:05.641Z,36.3
2018-08-31T00:54:05.300Z,36.4
2018-08-31T00:56:06.061Z,36.4
2018-08-31T00:58:05.822Z,36.4
2018-08-31T01:00:05.694Z,36.5
2018-08-31T01:02:07.936Z,36.5
2018-08-31T01:04:05.147Z,36.3
2018-08-31T01:06:05.925Z,36.6
2018-08-31T01:08:05.671Z,36.3
2018-08-31T01:10:05.373Z,36.3
2018-08-31T01:12:05.062Z,36.3
2018-08-31T01:14:05.306Z,36.4
2018-08-31T01:16:05.020Z,36.4
2018-08-31T01:18:05.915Z,36.4
2018-08-31T01:20:05.363Z,36.4
2018-08-31T01:22:05.606Z,36.4
2018-08-31T01:24:05.355Z,36.4
2018-08-31T01:26:05.071Z,36.4
2018-08-31T01:28:05.751Z,36.4
2018-08-31T01:30:07.959Z,36.4
2018-08-31T01:32:08.218Z,36.4
2018-08-31T01:34:05.902Z,36.4
2018-08-31T01:36:05.675Z,36.4
2018-08-31T01:38:05.359Z,36.5
2018-08-31T01:40:05.003Z,36.2
2018-08-31T01:42:08.267Z,36.2
2018-08-31T01:44:05.511Z,36.2
2018-08-31T01:46:07.855Z,36.3
2018-08-31T01:48:08.240Z,36.3
2018-08-31T01:50:05.883Z,36.3
2018-08-31T01:52:08.136Z,36.3
2018-08-31T01:54:05.798Z,36.3
2018-08-31T01:56:05.457Z,36.3
2018-08-31T01:58:08.247Z,36.3
2018-08-31T02:00:05.550Z,36.3
2018-08-31T02:02:05.253Z,36.3
2018-08-31T02:04:06.010Z,36.3
2018-08-31T02:06:05.855Z,36.4
2018-08-31T02:08:10.626Z,29.7
2018-08-31T02:10:07.854Z,36.2
2018-08-31T02:12:08.133Z,36.4
2018-08-31T02:14:05.840Z,36.2
2018-08-31T02:16:05.054Z,36.4
2018-08-31T02:18:05.989Z,36.5
2018-08-31T02:20:05.257Z,36.3
2018-08-31T02:22:05.001Z,36.3
2018-08-31T02:24:05.722Z,36.3
2018-08-31T02:26:10.502Z,36.3
2018-08-31T02:28:05.246Z,36.3
2018-08-31T02:30:08.502Z,36.3
2018-08-31T02:32:07.751Z,36.3
2018-08-31T02:34:05.967Z,36.3
2018-08-31T02:36:05.802Z,36.3
2018-08-31T02:38:05.083Z,36.3
2018-08-31T02:40:05.844Z,36.4
2018-08-31T02:42:05.091Z,36.4
2018-08-31T02:44:05.736Z,36.4
2018-08-31T02:46:07.947Z,36.4
2018-08-31T02:48:05.651Z,36.4
2018-08-31T02:50:05.372Z,36.4
2018-08-31T02:52:05.206Z,36.4
2018-08-31T02:54:05.459Z,36.4
2018-08-31T02:56:07.697Z,36.1
2018-08-31T02:58:05.397Z,36.1
2018-08-31T03:00:05.093Z,36.2
2018-08-31T03:02:05.835Z,36.2
2018-08-31T03:04:05.548Z,36.2
2018-08-31T03:06:05.871Z,36.2
2018-08-31T03:08:08.113Z,36.3
2018-08-31T03:10:10.544Z,36.3
2018-08-31T03:12:05.815Z,36.2
2018-08-31T03:14:05.518Z,36.3
2018-08-31T03:16:07.753Z,36.3
2018-08-31T03:18:08.252Z,36.3
2018-08-31T03:20:05.978Z,36.3
2018-08-31T03:22:05.648Z,36.4
2018-08-31T03:24:05.341Z,36.4
2018-08-31T03:26:05.074Z,36.3
2018-08-31T03:28:05.817Z,36.2
2018-08-31T03:30:08.133Z,36.3
2018-08-31T03:32:08.415Z,36.2
2018-08-31T03:34:07.693Z,36.3
2018-08-31T03:36:07.921Z,36.3
2018-08-31T03:38:05.658Z,36.3
2018-08-31T03:40:07.873Z,36.3
2018-08-31T03:42:05.587Z,36.3
2018-08-31T03:44:05.306Z,36.3
2018-08-31T03:46:13.115Z,36.3
2018-08-31T03:48:05.783Z,36.1
2018-08-31T03:50:05.477Z,36.3
2018-08-31T03:52:05.213Z,36.3
2018-08-31T03:54:08.025Z,36.3
2018-08-31T03:56:15.801Z,36.2
2018-08-31T03:58:05.545Z,36.2
2018-08-31T04:00:05.251Z,36.2
2018-08-31T04:02:05.954Z,36.2
2018-08-31T04:04:08.275Z,36.5
2018-08-31T04:06:05.978Z,36.2
2018-08-31T04:08:05.656Z,36.2
2018-08-31T04:10:05.512Z,36.3
2018-08-31T04:12:05.222Z,36.3
2018-08-31T04:14:05.904Z,36.3
2018-08-31T04:16:10.678Z,36.3
2018-08-31T04:18:05.551Z,36.3
2018-08-31T04:20:05.259Z,36.3
2018-08-31T04:22:13.534Z,36.4
2018-08-31T04:24:05.277Z,36.4
2018-08-31T04:26:05.953Z,36.3
2018-08-31T04:28:05.700Z,36.3
2018-08-31T04:30:05.370Z,36.3
2018-08-31T04:32:05.079Z,36.1
2018-08-31T04:34:05.988Z,36.3
2018-08-31T04:36:05.964Z,36.1
2018-08-31T04:38:08.281Z,36.2
2018-08-31T04:40:06.008Z,36.2
2018-08-31T04:42:16.674Z,36.8
2018-08-31T04:44:11.288Z,36.3
2018-08-31T04:46:05.339Z,36.8
2018-08-31T04:48:05.045Z,36.2
2018-08-31T04:50:05.799Z,36.3
2018-08-31T04:52:05.703Z,36.3
2018-08-31T04:54:05.709Z,36.2
2018-08-31T04:56:05.349Z,36.2
2018-08-31T04:58:05.059Z,36.3
2018-08-31T05:00:05.797Z,36.3
2018-08-31T05:02:05.503Z,36.3
2018-08-31T05:04:05.214Z,36.3
2018-08-31T05:06:05.944Z,36.3
2018-08-31T05:08:05.607Z,36.3
2018-08-31T05:10:05.384Z,36.4
2018-08-31T05:12:05.150Z,36.3
2018-08-31T05:14:13.462Z,36.2
2018-08-31T05:16:05.318Z,36.2
2018-08-31T05:18:05.570Z,36.2
2018-08-31T05:20:10.872Z,36.3
2018-08-31T05:22:05.569Z,36.3
2018-08-31T05:24:05.286Z,36.4
2018-08-31T05:26:05.980Z,36.4
2018-08-31T05:28:05.667Z,36.4
2018-08-31T05:30:05.886Z,36.4
2018-08-31T05:32:05.566Z,36.4
2018-08-31T05:34:05.318Z,36.4
2018-08-31T05:36:05.728Z,36.4
2018-08-31T05:38:05.403Z,36.5
2018-08-31T05:40:07.684Z,36.4
2018-08-31T05:42:05.913Z,36.5
2018-08-31T05:44:05.587Z,36.5
2018-08-31T05:46:05.284Z,36.5
2018-08-31T05:48:06.100Z,36.5
2018-08-31T05:50:08.403Z,36.5
2018-08-31T05:52:05.125Z,36.5
2018-08-31T05:54:05.874Z,36.5
2018-08-31T05:56:08.086Z,36.5
2018-08-31T05:58:05.929Z,36.5
2018-08-31T06:00:05.654Z,36.5
2018-08-31T06:02:05.436Z,36.5
2018-08-31T06:04:05.946Z,36.5
2018-08-31T06:06:05.631Z,36.5
2018-08-31T06:08:05.875Z,36.6
2018-08-31T06:10:05.121Z,36.5
2018-08-31T06:12:05.843Z,36.6
2018-08-31T06:14:05.116Z,36.6
2018-08-31T06:16:07.904Z,36.6
2018-08-31T06:18:05.833Z,36.6
2018-08-31T06:20:05.497Z,36.4
2018-08-31T06:22:05.177Z,36.6
2018-08-31T06:24:08.455Z,36.6
2018-08-31T06:26:05.117Z,36.6
2018-08-31T06:28:05.530Z,36.5
2018-08-31T06:30:05.250Z,36.4
2018-08-31T06:32:05.497Z,36.7
2018-08-31T06:34:05.705Z,36.7
2018-08-31T06:36:08.064Z,36.8
2018-08-31T06:38:08.322Z,36.8
2018-08-31T06:40:05.588Z,36.5
2018-08-31T06:42:05.546Z,36.5
2018-08-31T06:44:06.001Z,36.5
2018-08-31T06:46:05.716Z,36.6
2018-08-31T06:48:06.147Z,36.6
2018-08-31T06:50:05.731Z,36.8
2018-08-31T06:52:05.141Z,36.8
2018-08-31T06:54:05.351Z,36.8
2018-08-31T06:56:05.047Z,36.8
2018-08-31T06:58:05.740Z,36.8
2018-08-31T07:00:05.535Z,36.8
2018-08-31T07:02:07.838Z,36.8
2018-08-31T07:04:05.059Z,36.8
2018-08-31T07:06:05.285Z,36.8
2018-08-31T07:08:05.994Z,36.8
2018-08-31T07:10:05.645Z,36.9
2018-08-31T07:12:07.981Z,36.9
2018-08-31T07:14:05.520Z,36.9
2018-08-31T07:16:05.284Z,36.8
2018-08-31T07:18:05.233Z,36.9
2018-08-31T07:20:05.904Z,37.2
2018-08-31T07:22:05.571Z,37.3
2018-08-31T07:24:05.409Z,37.3
2018-08-31T07:26:05.096Z,37.3
2018-08-31T07:28:08.380Z,37.3
2018-08-31T07:30:08.239Z,37.3
2018-08-31T07:32:05.511Z,37.3
2018-08-31T07:34:10.114Z,37.3
2018-08-31T07:36:05.024Z,37.3
2018-08-31T07:38:05.999Z,37.6
2018-08-31T07:40:05.904Z,37.5
2018-08-31T07:42:05.131Z,37.6
2018-08-31T07:44:10.909Z,37.5
2018-08-31T07:46:05.684Z,37.7
2018-08-31T07:48:07.906Z,37.8
2018-08-31T07:50:05.899Z,37.7
2018-08-31T07:52:05.569Z,37.9
2018-08-31T07:54:10.646Z,38
2018-08-31T07:56:05.613Z,38
2018-08-31T07:58:07.859Z,38.1
2018-08-31T08:00:05.505Z,38.1
2018-08-31T08:02:05.797Z,37.9
2018-08-31T08:04:05.586Z,38.1
2018-08-31T08:06:05.837Z,38
2018-08-31T08:08:05.574Z,38
2018-08-31T08:10:06.297Z,38
2018-08-31T08:12:06.143Z,38.1
2018-08-31T08:14:11.352Z,38.2
2018-08-31T08:16:07.659Z,38.2
2018-08-31T08:18:05.697Z,38.2
2018-08-31T08:20:05.936Z,38.4
2018-08-31T08:22:05.605Z,38.4
2018-08-31T08:24:05.824Z,38.3
2018-08-31T08:26:06.595Z,38.3
2018-08-31T08:28:05.285Z,38.3
2018-08-31T08:30:05.949Z,38.4
2018-08-31T08:32:08.239Z,38.9
2018-08-31T08:34:05.961Z,38.6
2018-08-31T08:36:05.874Z,38.7
2018-08-31T08:38:08.428Z,39
2018-08-31T08:40:05.063Z,39
2018-08-31T08:42:05.849Z,39.1
2018-08-31T08:44:05.959Z,39.1
2018-08-31T08:46:05.717Z,39.1
2018-08-31T08:48:05.515Z,39.2
2018-08-31T08:50:05.538Z,39.4
2018-08-31T08:52:05.234Z,39.4
2018-08-31T08:54:05.446Z,39.3
2018-08-31T08:56:05.109Z,39.6
2018-08-31T08:58:05.922Z,39.5
2018-08-31T09:00:05.715Z,39.5
2018-08-31T09:02:08.006Z,39.8
2018-08-31T09:04:08.279Z,39.8
2018-08-31T09:06:06.009Z,39.8
2018-08-31T09:08:05.239Z,39.8
2018-08-31T09:10:06.057Z,39.8
2018-08-31T09:12:05.732Z,39.5
2018-08-31T09:14:08.088Z,39.8
2018-08-31T09:16:08.003Z,40.1
2018-08-31T09:18:10.984Z,40
2018-08-31T09:20:05.363Z,40.1
2018-08-31T09:22:07.673Z,40.4
2018-08-31T09:24:07.937Z,40.6
2018-08-31T09:26:05.405Z,40.6
2018-08-31T09:28:05.448Z,40.5
2018-08-31T09:30:05.345Z,40.6
2018-08-31T09:32:07.811Z,40.8
2018-08-31T09:34:05.769Z,40.6
2018-08-31T09:36:05.868Z,40.6
2018-08-31T09:38:05.765Z,40.7
2018-08-31T09:40:05.767Z,40.6
2018-08-31T09:42:05.841Z,40.4
2018-08-31T09:44:08.237Z,40.8
2018-08-31T09:46:05.752Z,40.8
2018-08-31T09:48:10.734Z,40.8
2018-08-31T09:50:05.106Z,40.8
2018-08-31T09:52:08.157Z,40.7
2018-08-31T09:54:05.750Z,40.6
2018-08-31T09:56:05.487Z,40.7
2018-08-31T09:58:07.765Z,40.6
2018-08-31T10:00:05.501Z,40.6
2018-08-31T10:02:08.248Z,40.7
2018-08-31T10:04:06.044Z,40.8
2018-08-31T10:06:05.332Z,40.7
2018-08-31T10:08:07.582Z,40.7
2018-08-31T10:10:05.328Z,40.9
2018-08-31T10:12:05.612Z,40.9
2018-08-31T10:14:11.349Z,41.2
2018-08-31T10:16:05.107Z,41.1
2018-08-31T10:18:05.054Z,41
2018-08-31T10:20:08.255Z,41.1
2018-08-31T10:22:05.946Z,41
2018-08-31T10:24:05.683Z,40.9
2018-08-31T10:26:05.607Z,41
2018-08-31T10:28:13.144Z,41.2
2018-08-31T10:30:05.887Z,41.1
2018-08-31T10:32:05.449Z,41
2018-08-31T10:34:05.176Z,41.2
2018-08-31T10:36:05.878Z,41.4
2018-08-31T10:38:05.667Z,41.5
2018-08-31T10:40:05.902Z,41.7
2018-08-31T10:42:05.753Z,41.8
2018-08-31T10:44:07.988Z,42.2
2018-08-31T10:46:05.679Z,42.3
2018-08-31T10:48:05.937Z,42.6
2018-08-31T10:50:08.228Z,42.5
2018-08-31T10:52:05.973Z,42.5
2018-08-31T10:54:05.232Z,42.7
2018-08-31T10:56:06.016Z,42.7
2018-08-31T10:58:05.358Z,43.2
2018-08-31T11:00:05.120Z,44.1
2018-08-31T11:02:08.501Z,43.3
2018-08-31T11:04:05.197Z,43
2018-08-31T11:06:07.311Z,42.9
2018-08-31T11:08:05.057Z,43.5
2018-08-31T11:10:05.731Z,43.4
2018-08-31T11:12:05.498Z,43.3
2018-08-31T11:14:05.205Z,43.4
2018-08-31T11:16:05.956Z,43.5
2018-08-31T11:18:05.820Z,43.6
2018-08-31T11:20:05.083Z,43.5
2018-08-31T11:22:08.368Z,43.6
2018-08-31T11:24:05.057Z,43.6
2018-08-31T11:26:08.348Z,43.6
2018-08-31T11:28:05.028Z,43.4
2018-08-31T11:30:05.695Z,43.7
2018-08-31T11:32:05.363Z,43.7
2018-08-31T11:34:07.631Z,43.3
2018-08-31T11:36:10.377Z,43.5
2018-08-31T11:38:07.602Z,43.5
2018-08-31T11:40:05.364Z,43.5
2018-08-31T11:42:05.561Z,43.4
2018-08-31T11:44:05.303Z,43.4
2018-08-31T11:46:05.028Z,43.1
2018-08-31T11:48:05.263Z,43.3
2018-08-31T11:50:06.179Z,43.3
2018-08-31T11:52:05.903Z,43.4
2018-08-31T11:54:05.652Z,43.1
2018-08-31T11:56:05.357Z,43.1
2018-08-31T11:58:05.579Z,42.9
2018-08-31T12:00:05.250Z,43.1
2018-08-31T12:02:06.313Z,43
2018-08-31T12:04:08.093Z,42.9
2018-08-31T12:06:05.848Z,42.9
2018-08-31T12:08:05.064Z,42.9
2018-08-31T12:10:05.723Z,42.9
2018-08-31T12:12:08.031Z,42.9
2018-08-31T12:14:08.363Z,42.8
2018-08-31T12:16:05.085Z,42.8
2018-08-31T12:18:05.984Z,42.9
2018-08-31T12:20:05.837Z,42.9
2018-08-31T12:22:05.568Z,42.6
2018-08-31T12:24:05.374Z,42.7
2018-08-31T12:26:07.661Z,42.7
2018-08-31T12:28:05.342Z,42.6
2018-08-31T12:30:05.026Z,42.7
2018-08-31T12:32:10.803Z,42.6
2018-08-31T12:34:05.598Z,42.7
2018-08-31T12:36:05.844Z,42.7
2018-08-31T12:38:05.543Z,42.6
2018-08-31T12:40:05.278Z,42.6
2018-08-31T12:42:06.043Z,42.5
2018-08-31T12:44:08.347Z,42.5
2018-08-31T12:46:05.265Z,42.5
2018-08-31T12:48:05.998Z,42.5
2018-08-31T12:50:12.825Z,42.6
2018-08-31T12:52:05.522Z,42.4
2018-08-31T12:54:05.271Z,42.6
2018-08-31T12:56:06.028Z,42.4
2018-08-31T12:58:05.726Z,42.4
2018-08-31T13:00:10.601Z,42.3
2018-08-31T13:02:05.729Z,42.5
2018-08-31T13:04:05.512Z,42.5
2018-08-31T13:06:05.188Z,42.5
2018-08-31T13:08:05.369Z,42.4
2018-08-31T13:10:07.572Z,42.6
2018-08-31T13:12:05.242Z,42.6
2018-08-31T13:14:05.903Z,42.3
2018-08-31T13:16:05.545Z,42.5
2018-08-31T13:18:05.938Z,42.4
2018-08-31T13:20:05.930Z,42.2
2018-08-31T13:22:08.162Z,42.3
2018-08-31T13:24:05.904Z,42.3
2018-08-31T13:26:05.590Z,42.3
2018-08-31T13:28:10.302Z,42.5
2018-08-31T13:30:05.993Z,42.5
2018-08-31T13:32:10.740Z,42.5
2018-08-31T13:34:05.451Z,42.4
2018-08-31T13:36:05.225Z,42.7
2018-08-31T13:38:06.248Z,42.6
2018-08-31T13:40:05.339Z,42.7
2018-08-31T13:42:05.008Z,42.8
2018-08-31T13:44:08.432Z,42.7
2018-08-31T13:46:07.915Z,42.8
2018-08-31T13:48:05.589Z,42.5
2018-08-31T13:50:08.416Z,42.8
2018-08-31T13:52:05.145Z,42.9
2018-08-31T13:54:05.859Z,42.9
2018-08-31T13:56:08.506Z,42.7
2018-08-31T13:58:07.842Z,42.6
2018-08-31T14:00:13.173Z,42.6
2018-08-31T14:02:08.542Z,42.3
2018-08-31T14:04:07.900Z,42.6
2018-08-31T14:06:05.658Z,42.6
2018-08-31T14:08:07.902Z,42.8
2018-08-31T14:10:08.227Z,43
2018-08-31T14:12:05.199Z,43
2018-08-31T14:14:05.908Z,43.1
2018-08-31T14:16:05.624Z,42.8
2018-08-31T14:18:08.043Z,42.8
2018-08-31T14:20:05.308Z,42.8
2018-08-31T14:22:04.998Z,42.8
2018-08-31T14:24:05.841Z,42.8
2018-08-31T14:26:05.605Z,42.8
2018-08-31T14:28:10.290Z,42.7
2018-08-31T14:30:11.012Z,42.7
2018-08-31T14:32:10.763Z,42.7
2018-08-31T14:34:05.540Z,42.6
2018-08-31T14:36:05.782Z,42.8
2018-08-31T14:38:05.713Z,42.5
2018-08-31T14:40:05.600Z,42.6
2018-08-31T14:42:05.278Z,42.7
2018-08-31T14:44:06.143Z,43
2018-08-31T14:46:10.618Z,43.3
2018-08-31T14:48:05.270Z,43.4
2018-08-31T14:50:08.024Z,43.1
2018-08-31T14:52:08.259Z,43.1
2018-08-31T14:54:05.959Z,43
2018-08-31T14:56:05.726Z,43
2018-08-31T14:58:05.429Z,43.2
2018-08-31T15:00:10.194Z,43.4
2018-08-31T15:02:05.968Z,43.6
2018-08-31T15:04:05.824Z,43.9
2018-08-31T15:06:05.492Z,44.4
2018-08-31T15:08:07.720Z,44.3
2018-08-31T15:10:05.458Z,44.3
2018-08-31T15:12:05.469Z,45.9
2018-08-31T15:14:05.203Z,44.5
2018-08-31T15:16:05.896Z,44.7
2018-08-31T15:18:10.846Z,45
2018-08-31T15:20:05.514Z,45.2
2018-08-31T15:22:10.250Z,45.6
2018-08-31T15:24:05.988Z,45.6
2018-08-31T15:26:05.225Z,46.8
2018-08-31T15:28:06.465Z,46.6
2018-08-31T15:30:05.711Z,46.6
2018-08-31T15:32:05.443Z,46.4
2018-08-31T15:34:05.110Z,46.6
2018-08-31T15:36:05.872Z,46.6
2018-08-31T15:38:08.381Z,46.8
2018-08-31T15:40:05.083Z,46.8
2018-08-31T15:42:05.842Z,46.9
2018-08-31T15:44:05.643Z,46.9
2018-08-31T15:46:08.455Z,46.3
2018-08-31T15:48:05.190Z,46.2
2018-08-31T15:50:05.930Z,46
2018-08-31T15:52:08.169Z,46.2
2018-08-31T15:54:05.845Z,46.4
2018-08-31T15:56:06.757Z,45.5
2018-08-31T15:58:05.016Z,45.3
2018-08-31T16:00:05.783Z,45.3
2018-08-31T16:02:05.497Z,45.4
2018-08-31T16:04:05.157Z,45.6
2018-08-31T16:06:05.951Z,45.8
2018-08-31T16:08:05.930Z,45.9
2018-08-31T16:10:05.705Z,46.2
2018-08-31T16:12:07.683Z,45.8
2018-08-31T16:14:06.366Z,45.8
2018-08-31T16:16:06.299Z,46.5
2018-08-31T16:18:07.682Z,46.2
2018-08-31T16:20:10.125Z,46.2
2018-08-31T16:22:05.855Z,46.3
2018-08-31T16:24:05.561Z,46
2018-08-31T16:26:05.307Z,46.4
2018-08-31T16:28:06.015Z,45.2
2018-08-31T16:30:05.706Z,45
2018-08-31T16:32:05.415Z,45.2
2018-08-31T16:34:05.128Z,45.2
2018-08-31T16:36:05.814Z,45
2018-08-31T16:38:05.052Z,45
2018-08-31T16:40:05.754Z,45
2018-08-31T16:42:08.510Z,44.9
2018-08-31T16:44:05.208Z,44.9
2018-08-31T16:46:08.423Z,44.8
2018-08-31T16:48:07.667Z,44.8
2018-08-31T16:50:15.234Z,44.8
2018-08-31T16:52:10.965Z,44.7
2018-08-31T16:54:05.620Z,44.6
2018-08-31T16:56:10.415Z,44.7
2018-08-31T16:58:12.757Z,44.6
2018-08-31T17:00:05.131Z,44.5
2018-08-31T17:02:07.603Z,44.5
2018-08-31T17:04:07.832Z,44.5
2018-08-31T17:06:05.061Z,44.5
2018-08-31T17:08:05.800Z,44.3
2018-08-31T17:10:10.545Z,44.3
2018-08-31T17:12:07.785Z,44.4
2018-08-31T17:14:05.547Z,44.4
2018-08-31T17:16:05.250Z,44.4
2018-08-31T17:18:07.701Z,44.3
2018-08-31T17:20:08.731Z,44.3
2018-08-31T17:22:05.909Z,44.3
2018-08-31T17:24:13.136Z,44.3
2018-08-31T17:26:08.596Z,44
2018-08-31T17:28:05.463Z,44
2018-08-31T17:30:05.318Z,44.2
2018-08-31T17:32:05.528Z,44.1
2018-08-31T17:34:05.281Z,44.1
2018-08-31T17:36:06.165Z,44.1
2018-08-31T17:38:05.887Z,44
2018-08-31T17:40:05.615Z,44
2018-08-31T17:42:07.992Z,44.1
2018-08-31T17:44:10.957Z,43.8
2018-08-31T17:46:05.621Z,43.8
2018-08-31T17:48:05.378Z,43.9
2018-08-31T17:50:05.113Z,43.8
2018-08-31T17:52:05.438Z,43.7
2018-08-31T17:54:05.159Z,43.8
2018-08-31T17:56:10.317Z,43.6
2018-08-31T17:58:07.659Z,43.5
2018-08-31T18:00:05.343Z,43.5
2018-08-31T18:02:07.571Z,43.4
2018-08-31T18:04:05.290Z,43.4
2018-08-31T18:06:05.357Z,43.4
2018-08-31T18:08:05.708Z,43.4
2018-08-31T18:10:05.683Z,43.4
2018-08-31T18:12:13.521Z,43.4
2018-08-31T18:14:05.756Z,43.4
2018-08-31T18:16:06.259Z,43.3
2018-08-31T18:18:05.466Z,43.3
2018-08-31T18:20:07.724Z,43.1
2018-08-31T18:22:05.433Z,43.1
2018-08-31T18:24:10.799Z,43.1
2018-08-31T18:26:10.554Z,43.1
2018-08-31T18:28:05.233Z,43.1
2018-08-31T18:30:05.914Z,43.1
2018-08-31T18:32:05.694Z,43.1
2018-08-31T18:34:07.956Z,43
2018-08-31T18:36:10.770Z,42.9
2018-08-31T18:38:05.696Z,43.1
2018-08-31T18:40:05.658Z,43
2018-08-31T18:42:05.758Z,42.9
2018-08-31T18:44:06.027Z,43
2018-08-31T18:46:05.752Z,42.9
2018-08-31T18:48:08.481Z,43
2018-08-31T18:50:05.234Z,43
2018-08-31T18:52:08.461Z,42.9
2018-08-31T18:54:05.165Z,42.9
2018-08-31T18:56:08.086Z,42.8
2018-08-31T18:58:05.973Z,42.7
2018-08-31T19:00:05.728Z,42.9
2018-08-31T19:02:07.979Z,42.8
2018-08-31T19:04:05.737Z,42.8
2018-08-31T19:06:05.464Z,43
2018-08-31T19:08:05.212Z,42.8
2018-08-31T19:10:05.146Z,42.8
2018-08-31T19:12:05.896Z,42.8
2018-08-31T19:14:05.702Z,42.8
2018-08-31T19:16:10.486Z,42.8
2018-08-31T19:18:05.424Z,42.8
2018-08-31T19:20:05.138Z,42.7
2018-08-31T19:22:15.955Z,42.7
2018-08-31T19:24:10.675Z,42.8
2018-08-31T19:26:10.442Z,42.7
2018-08-31T19:28:10.214Z,42.6
2018-08-31T19:30:05.926Z,42.6
2018-08-31T19:32:05.235Z,42.7
2018-08-31T19:34:05.971Z,42.7
2018-08-31T19:36:05.171Z,42.7
2018-08-31T19:38:10.963Z,42.7
2018-08-31T19:40:10.709Z,42.5
2018-08-31T19:42:05.400Z,42.5
2018-08-31T19:44:05.112Z,42.5
2018-08-31T19:46:05.845Z,42.7
2018-08-31T19:48:10.606Z,42.4
2018-08-31T19:50:05.343Z,42.4
2018-08-31T19:52:05.017Z,42.5
2018-08-31T19:54:08.538Z,42.6
2018-08-31T19:56:05.746Z,42.6
2018-08-31T19:58:05.454Z,42.7
2018-08-31T20:00:07.716Z,42.5
2018-08-31T20:02:10.693Z,42.5
2018-08-31T20:04:05.397Z,42.4
2018-08-31T20:06:05.082Z,42.6
2018-08-31T20:08:10.831Z,42.6
2018-08-31T20:10:05.557Z,42.4
2018-08-31T20:12:05.374Z,42.6
2018-08-31T20:14:07.635Z,42.7
2018-08-31T20:16:08.012Z,42.6
2018-08-31T20:18:05.650Z,42.6
2018-08-31T20:20:05.403Z,42.6
2018-08-31T20:22:05.111Z,42.6
2018-08-31T20:24:05.863Z,42.3
2018-08-31T20:26:05.560Z,42.3
2018-08-31T20:28:05.245Z,42.2
2018-08-31T20:30:05.971Z,42.2
2018-08-31T20:32:05.668Z,42.3
2018-08-31T20:34:05.363Z,42.1
2018-08-31T20:36:05.097Z,42
2018-08-31T20:38:08.437Z,42.1
2018-08-31T20:40:10.182Z,42.1
2018-08-31T20:42:05.884Z,42
2018-08-31T20:44:05.135Z,42.1
2018-08-31T20:46:05.854Z,42.1
2018-08-31T20:48:05.590Z,42.1
2018-08-31T20:50:05.831Z,42.1
2018-08-31T20:52:05.048Z,42.1
2018-08-31T20:54:10.972Z,41.9
2018-08-31T20:56:11.057Z,42.1
2018-08-31T20:58:05.284Z,41.9
2018-08-31T21:00:05.994Z,41.9
2018-08-31T21:02:05.667Z,41.9
2018-08-31T21:04:05.349Z,41.9
2018-08-31T21:06:11.096Z,41.9
2018-08-31T21:08:10.812Z,41.9
2018-08-31T21:10:05.996Z,41.9
2018-08-31T21:12:05.931Z,41.9
2018-08-31T21:14:06.092Z,41.9
2018-08-31T21:16:08.927Z,41.9
2018-08-31T21:18:08.646Z,41.9
2018-08-31T21:20:05.397Z,41.9
2018-08-31T21:22:05.301Z,41.9
2018-08-31T21:24:06.782Z,41.9
2018-08-31T21:26:05.514Z,41.9
2018-08-31T21:28:05.197Z,42
2018-08-31T21:30:05.877Z,42
2018-08-31T21:32:08.179Z,41.8
2018-08-31T21:34:05.021Z,42.1
2018-08-31T21:36:05.735Z,42
2018-08-31T21:38:07.978Z,42
2018-08-31T21:40:05.743Z,41.8
2018-08-31T21:42:05.814Z,42
2018-08-31T21:44:06.005Z,41.8
2018-08-31T21:46:13.617Z,41.8
2018-08-31T21:48:05.316Z,41.8
2018-08-31T21:50:05.991Z,41.8
2018-08-31T21:52:08.247Z,41.8
2018-08-31T21:54:05.954Z,41.9
2018-08-31T21:56:08.255Z,41.8
2018-08-31T21:58:06.002Z,41.9
2018-08-31T22:00:05.721Z,41.9
2018-08-31T22:02:05.458Z,41.9
2018-08-31T22:04:05.142Z,41.9
2018-08-31T22:06:05.833Z,41.9
2018-08-31T22:08:05.553Z,41.8
2018-08-31T22:10:05.310Z,41.8
2018-08-31T22:12:05.572Z,41.9
2018-08-31T22:14:05.252Z,41.9
2018-08-31T22:16:05.918Z,41.9
2018-08-31T22:18:06.043Z,41.6
2018-08-31T22:20:05.783Z,41.8
2018-08-31T22:22:05.477Z,41.9
2018-08-31T22:24:07.763Z,41.6
2018-08-31T22:26:05.419Z,41.6
2018-08-31T22:28:05.155Z,41.8
2018-08-31T22:30:05.905Z,41.6
2018-08-31T22:32:05.660Z,41.7
2018-08-31T22:34:05.400Z,41.7
2018-08-31T22:36:05.121Z,41.7
2018-08-31T22:38:05.832Z,41.9
2018-08-31T22:40:05.120Z,41.7
2018-08-31T22:42:05.799Z,41.6
2018-08-31T22:44:13.085Z,41.6
2018-08-31T22:46:05.332Z,41.6
2018-08-31T22:48:05.036Z,41.6
2018-08-31T22:50:08.270Z,41.7
2018-08-31T22:52:05.948Z,41.6
2018-08-31T22:54:05.776Z,41.6
2018-08-31T22:56:05.521Z,41.6
2018-08-31T22:58:05.232Z,41.7
2018-08-31T23:00:05.940Z,41.7
2018-08-31T23:02:05.774Z,41.7
2018-08-31T23:04:05.495Z,41.6
2018-08-31T23:06:07.727Z,41.7
2018-08-31T23:08:07.927Z,41.7
2018-08-31T23:10:05.326Z,41.4
2018-08-31T23:12:05.054Z,41.7
2018-08-31T23:14:05.740Z,41.7
2018-08-31T23:16:08.004Z,41.5
2018-08-31T23:18:05.911Z,41.5
2018-08-31T23:20:05.648Z,41.7
2018-08-31T23:22:05.896Z,41.6
2018-08-31T23:24:05.581Z,41.4
2018-08-31T23:26:05.482Z,41.7
2018-08-31T23:28:05.223Z,41.4
2018-08-31T23:30:11.035Z,41.4
2018-08-31T23:32:05.786Z,41.4
2018-08-31T23:34:08.010Z,41.4
2018-08-31T23:36:08.301Z,41.4
2018-08-31T23:38:05.974Z,41.4
2018-08-31T23:40:08.202Z,41.4
2018-08-31T23:42:05.891Z,41.4
2018-08-31T23:44:05.572Z,41.3
2018-08-31T23:46:05.338Z,41.4
2018-08-31T23:48:05.152Z,41.4
2018-08-31T23:50:05.908Z,41.4
2018-08-31T23:52:10.750Z,41.4
2018-08-31T23:54:10.616Z,41.3
2018-08-31T23:56:05.329Z,41.3
2018-08-31T23:58:07.596Z,41.3
